createdAt,value
2022-12-31T00:01:50.178Z,97686.73
2022-12-31T00:04:20.698Z,97693.66
2022-12-31T00:06:51.595Z,97694.80
2022-12-31T00:09:21.960Z,97693.88
2022-12-31T00:11:52.364Z,97690.91
2022-12-31T00:14:22.838Z,97692.60
2022-12-31T00:16:53.189Z,97692.05
2022-12-31T00:19:23.610Z,97695.32
2022-12-31T00:21:53.943Z,97693.41
2022-12-31T00:24:24.590Z,97691.30
2022-12-31T00:26:54.946Z,97695.73
2022-12-31T00:29:25.912Z,97688.74
2022-12-31T00:31:56.271Z,97693.00
2022-12-31T00:34:26.934Z,97693.45
2022-12-31T00:36:57.294Z,97695.65
2022-12-31T00:39:27.785Z,97693.84
2022-12-31T00:41:58.663Z,97689.48
2022-12-31T00:44:29.062Z,97690.48
2022-12-31T00:46:59.515Z,97689.76
2022-12-31T00:49:29.843Z,97694.21
2022-12-31T00:52:00.204Z,97699.77
2022-12-31T00:54:30.535Z,97704.03
2022-12-31T00:57:01.015Z,97706.24
2022-12-31T00:59:31.426Z,97710.55
2022-12-31T01:02:02.217Z,97706.56
2022-12-31T01:04:33.059Z,97707.22
2022-12-31T01:07:03.840Z,97710.46
2022-12-31T01:09:34.513Z,97714.73
2022-12-31T01:12:05.342Z,97716.07
2022-12-31T01:14:35.675Z,97716.42
2022-12-31T01:17:06.007Z,97719.35
2022-12-31T01:19:36.322Z,97730.95
2022-12-31T01:22:06.648Z,97726.58
2022-12-31T01:24:37.048Z,97726.81
2022-12-31T01:27:07.507Z,97725.65
2022-12-31T01:29:38.107Z,97722.78
2022-12-31T01:32:08.693Z,97728.27
2022-12-31T01:34:39.000Z,97722.36
2022-12-31T01:37:09.923Z,97722.91
2022-12-31T01:39:40.285Z,97729.30
2022-12-31T01:42:13.121Z,97735.20
2022-12-31T01:44:56.041Z,97729.27
2022-12-31T01:47:37.618Z,97727.14
2022-12-31T01:50:12.810Z,97725.45
2022-12-31T01:52:45.649Z,97722.72
2022-12-31T01:55:16.175Z,97718.55
2022-12-31T01:57:47.441Z,97724.61
2022-12-31T02:00:18.231Z,97724.54
2022-12-31T02:02:48.904Z,97724.83
2022-12-31T02:05:23.795Z,97722.88
2022-12-31T02:07:54.541Z,97723.75
2022-12-31T02:10:24.834Z,97726.46
2022-12-31T02:12:55.342Z,97721.77
2022-12-31T02:15:36.493Z,97721.63
2022-12-31T02:18:12.974Z,97721.08
2022-12-31T02:21:14.250Z,97718.59
2022-12-31T02:24:06.329Z,97710.77
2022-12-31T02:26:49.598Z,97714.96
2022-12-31T02:30:00.077Z,97716.51
2022-12-31T02:32:40.104Z,97723.98
2022-12-31T02:35:13.576Z,97723.03
2022-12-31T02:37:45.931Z,97720.95
2022-12-31T02:40:18.957Z,97724.94
2022-12-31T02:42:55.099Z,97715.72
2022-12-31T02:45:30.428Z,97718.67
2022-12-31T02:48:13.977Z,97716.89
2022-12-31T02:50:55.385Z,97727.59
2022-12-31T02:53:40.453Z,97727.35
2022-12-31T02:56:14.220Z,97727.90
2022-12-31T02:59:07.938Z,97731.61
2022-12-31T03:01:58.559Z,97724.13
2022-12-31T03:04:36.330Z,97721.43
2022-12-31T03:07:08.408Z,97709.57
2022-12-31T03:09:39.381Z,97723.36
2022-12-31T03:12:29.776Z,97723.98
2022-12-31T03:15:00.341Z,97724.03
2022-12-31T03:17:30.697Z,97723.40
2022-12-31T03:20:22.045Z,97731.13
2022-12-31T03:22:52.463Z,97732.11
2022-12-31T03:25:35.573Z,97741.11
2022-12-31T03:28:05.488Z,97739.52
2022-12-31T03:30:37.258Z,97744.42
2022-12-31T03:33:08.511Z,97742.77
2022-12-31T03:35:40.900Z,97742.59
2022-12-31T03:38:11.224Z,97743.91
2022-12-31T03:40:42.778Z,97749.05
2022-12-31T03:43:13.144Z,97749.91
2022-12-31T03:45:43.601Z,97756.07
2022-12-31T03:48:13.957Z,97766.44
2022-12-31T03:50:44.244Z,97768.00
2022-12-31T03:53:14.629Z,97769.06
2022-12-31T03:55:44.932Z,97768.98
2022-12-31T03:58:15.235Z,97778.19
2022-12-31T04:00:45.788Z,97785.39
2022-12-31T04:03:16.394Z,97784.97
2022-12-31T04:05:46.941Z,97786.60
2022-12-31T04:08:17.321Z,97793.60
2022-12-31T04:10:48.120Z,97788.95
2022-12-31T04:13:18.562Z,97788.33
2022-12-31T04:15:52.325Z,97790.62
2022-12-31T04:18:23.026Z,97788.08
2022-12-31T04:20:53.364Z,97782.17
2022-12-31T04:23:23.652Z,97792.90
2022-12-31T04:25:54.301Z,97798.17
2022-12-31T04:28:24.834Z,97800.85
2022-12-31T04:30:55.169Z,97797.46
2022-12-31T04:33:25.558Z,97800.39
2022-12-31T04:36:00.877Z,97798.47
2022-12-31T04:38:31.248Z,97792.77
2022-12-31T04:41:20.643Z,97794.83
2022-12-31T04:43:52.370Z,97789.27
2022-12-31T04:46:24.500Z,97788.47
2022-12-31T04:48:55.094Z,97788.20
2022-12-31T04:51:25.932Z,97784.52
2022-12-31T04:53:56.354Z,97792.52
2022-12-31T04:56:27.387Z,97793.14
2022-12-31T04:58:57.936Z,97796.45
2022-12-31T05:01:28.324Z,97797.27
2022-12-31T05:03:58.694Z,97801.16
2022-12-31T05:06:28.977Z,97802.83
2022-12-31T05:08:59.559Z,97800.31
2022-12-31T05:11:31.029Z,97803.58
2022-12-31T05:14:01.337Z,97809.35
2022-12-31T05:16:31.719Z,97805.73
2022-12-31T05:19:02.033Z,97808.59
2022-12-31T05:21:32.340Z,97809.76
2022-12-31T05:24:02.662Z,97815.16
2022-12-31T05:26:32.979Z,97815.52
2022-12-31T05:29:03.339Z,97812.69
2022-12-31T05:31:33.656Z,97814.42
2022-12-31T05:34:04.474Z,97811.48
2022-12-31T05:36:34.762Z,97807.81
2022-12-31T05:39:05.184Z,97810.96
2022-12-31T05:41:35.476Z,97809.79
2022-12-31T05:44:06.123Z,97809.67
2022-12-31T05:46:36.572Z,97817.47
2022-12-31T05:49:06.863Z,97818.95
2022-12-31T05:51:37.563Z,97814.19
2022-12-31T05:54:08.072Z,97811.03
2022-12-31T05:56:40.185Z,97797.06
2022-12-31T05:59:10.490Z,97795.98
2022-12-31T06:01:40.790Z,97786.80
2022-12-31T06:04:11.289Z,97801.34
2022-12-31T06:06:41.659Z,97803.13
2022-12-31T06:09:12.053Z,97814.08
2022-12-31T06:11:42.387Z,97820.50
2022-12-31T06:14:13.081Z,97820.34
2022-12-31T06:16:43.506Z,97823.96
2022-12-31T06:19:13.865Z,97827.67
2022-12-31T06:21:44.199Z,97833.44
2022-12-31T06:24:14.570Z,97835.41
2022-12-31T06:26:44.948Z,97838.09
2022-12-31T06:29:15.306Z,97851.33
2022-12-31T06:31:45.624Z,97854.02
2022-12-31T06:34:15.993Z,97865.54
2022-12-31T06:36:46.388Z,97862.52
2022-12-31T06:39:17.013Z,97865.42
2022-12-31T06:41:47.444Z,97868.83
2022-12-31T06:44:17.804Z,97874.71
2022-12-31T06:46:48.190Z,97876.43
2022-12-31T06:49:20.028Z,97878.02
2022-12-31T06:51:50.325Z,97874.53
2022-12-31T06:54:20.937Z,97869.50
2022-12-31T06:56:52.185Z,97873.82
2022-12-31T06:59:28.732Z,97865.46
2022-12-31T07:02:27.730Z,97868.71
2022-12-31T07:05:25.251Z,97872.16
2022-12-31T07:08:03.390Z,97879.12
2022-12-31T07:10:40.083Z,97879.66
2022-12-31T07:13:28.185Z,97879.94
2022-12-31T07:16:06.838Z,97881.15
2022-12-31T07:18:42.544Z,97884.88
2022-12-31T07:21:16.493Z,97883.23
2022-12-31T07:23:47.741Z,97883.62
2022-12-31T07:26:23.467Z,97884.57
2022-12-31T07:29:01.468Z,97878.02
2022-12-31T07:31:39.514Z,97886.91
2022-12-31T07:34:15.613Z,97886.91
2022-12-31T07:37:02.466Z,97888.08
2022-12-31T07:39:38.827Z,97898.20
2022-12-31T07:42:15.332Z,97906.88
2022-12-31T07:44:54.702Z,97913.02
2022-12-31T07:47:28.135Z,97914.40
2022-12-31T07:49:59.818Z,97913.59
2022-12-31T07:52:31.032Z,97923.63
2022-12-31T07:55:01.335Z,97934.99
2022-12-31T07:57:36.772Z,97931.39
2022-12-31T08:00:13.501Z,97947.56
2022-12-31T08:03:03.598Z,97944.95
2022-12-31T08:05:37.915Z,97938.73
2022-12-31T08:08:24.371Z,97949.42
2022-12-31T08:11:04.517Z,97943.94
2022-12-31T08:13:35.605Z,97946.59
2022-12-31T08:16:09.413Z,97961.78
2022-12-31T08:18:40.647Z,97963.97
2022-12-31T08:21:18.888Z,97973.73
2022-12-31T08:23:58.244Z,97986.58
2022-12-31T08:26:36.237Z,97989.73
2022-12-31T08:29:13.538Z,97986.31
2022-12-31T08:31:51.488Z,97994.99
2022-12-31T08:34:26.353Z,97994.17
2022-12-31T08:37:04.098Z,97998.30
2022-12-31T08:39:45.116Z,98000.75
2022-12-31T08:42:26.822Z,97991.02
2022-12-31T08:45:04.793Z,97986.03
2022-12-31T08:47:42.113Z,97984.46
2022-12-31T08:50:19.286Z,97978.02
2022-12-31T08:52:50.970Z,97974.67
2022-12-31T08:55:23.129Z,97978.30
2022-12-31T08:58:02.546Z,97981.83
2022-12-31T09:00:33.190Z,97983.73
2022-12-31T09:03:20.995Z,97980.31
2022-12-31T09:06:00.511Z,97987.08
2022-12-31T09:08:38.144Z,97995.02
2022-12-31T09:11:19.190Z,97995.86
2022-12-31T09:14:04.507Z,97993.14
2022-12-31T09:16:43.743Z,97990.02
2022-12-31T09:19:14.420Z,97999.84
2022-12-31T09:21:46.094Z,97994.09
2022-12-31T09:24:18.298Z,98001.94
2022-12-31T09:26:55.540Z,98009.76
2022-12-31T09:29:42.350Z,98009.31
2022-12-31T09:32:22.354Z,98015.62
2022-12-31T09:34:57.775Z,98019.09
2022-12-31T09:37:40.283Z,98024.36
2022-12-31T09:40:38.817Z,98028.39
2022-12-31T09:43:46.487Z,98016.13
2022-12-31T09:46:32.026Z,98012.37
2022-12-31T09:49:26.703Z,98017.64
2022-12-31T09:52:05.912Z,98014.50
2022-12-31T09:54:53.956Z,98018.34
2022-12-31T09:57:40.698Z,98012.62
2022-12-31T10:00:16.719Z,98021.82
2022-12-31T10:03:05.484Z,98024.59
2022-12-31T10:05:53.766Z,98024.70
2022-12-31T10:08:39.861Z,98021.30
2022-12-31T10:11:17.550Z,98021.11
2022-12-31T10:13:55.074Z,98016.88
2022-12-31T10:16:37.653Z,98026.98
2022-12-31T10:19:35.546Z,98034.52
2022-12-31T10:22:15.378Z,98041.67
2022-12-31T10:25:03.111Z,98039.27
2022-12-31T10:27:44.931Z,98037.76
2022-12-31T10:30:19.555Z,98034.52
2022-12-31T10:33:00.404Z,98038.83
2022-12-31T10:35:44.193Z,98037.88
2022-12-31T10:38:25.469Z,98038.25
2022-12-31T10:41:25.294Z,98043.30
2022-12-31T10:44:31.542Z,98047.50
2022-12-31T10:47:22.357Z,98037.47
2022-12-31T10:50:20.034Z,98033.52
2022-12-31T10:53:05.684Z,98033.63
2022-12-31T10:56:07.326Z,98033.59
2022-12-31T10:59:01.213Z,98040.44
2022-12-31T11:01:40.105Z,98045.33
2022-12-31T11:04:34.889Z,98046.60
2022-12-31T11:07:32.123Z,98054.33
2022-12-31T11:10:17.502Z,98057.52
2022-12-31T11:13:23.128Z,98059.58
2022-12-31T11:16:10.406Z,98075.17
2022-12-31T11:18:48.969Z,98071.86
2022-12-31T11:21:29.122Z,98066.69
2022-12-31T11:24:06.330Z,98062.27
2022-12-31T11:26:48.372Z,98063.39
2022-12-31T11:29:29.100Z,98065.14
2022-12-31T11:32:08.362Z,98055.55
2022-12-31T11:34:59.124Z,98059.17
2022-12-31T11:37:36.685Z,98059.13
2022-12-31T11:40:22.613Z,98055.36
2022-12-31T11:42:58.736Z,98057.42
2022-12-31T11:45:50.808Z,98050.52
2022-12-31T11:48:30.652Z,98058.10
2022-12-31T11:51:11.431Z,98063.01
2022-12-31T11:53:57.384Z,98054.45
2022-12-31T11:56:31.058Z,98054.83
2022-12-31T11:59:07.772Z,98058.34
2022-12-31T12:01:49.017Z,98048.98
2022-12-31T12:04:19.511Z,98043.61
2022-12-31T12:06:51.763Z,98046.80
2022-12-31T12:09:27.242Z,98043.83
2022-12-31T12:12:03.184Z,98037.38
2022-12-31T12:14:36.398Z,98038.54
2022-12-31T12:17:09.800Z,98034.55
2022-12-31T12:19:46.444Z,98026.19
2022-12-31T12:22:22.685Z,98033.52
2022-12-31T12:24:57.627Z,98034.85
2022-12-31T12:27:33.389Z,98038.52
2022-12-31T12:30:15.419Z,98032.31
2022-12-31T12:32:54.018Z,98029.44
2022-12-31T12:35:29.103Z,98026.45
2022-12-31T12:38:04.993Z,98027.47
2022-12-31T12:40:36.146Z,98024.98
2022-12-31T12:43:06.860Z,98020.02
2022-12-31T12:45:46.399Z,98023.10
2022-12-31T12:48:26.590Z,98021.79
2022-12-31T12:50:57.365Z,98011.33
2022-12-31T12:53:35.746Z,98013.98
2022-12-31T12:56:13.265Z,98019.33
2022-12-31T12:58:55.500Z,98032.86
2022-12-31T13:01:34.845Z,98030.52
2022-12-31T13:04:36.177Z,98029.10
2022-12-31T13:07:16.001Z,98021.92
2022-12-31T13:09:59.501Z,98021.30
2022-12-31T13:12:42.784Z,98025.02
2022-12-31T13:15:22.642Z,98026.59
2022-12-31T13:18:04.129Z,98040.25
2022-12-31T13:20:37.808Z,98043.16
2022-12-31T13:23:16.100Z,98034.40
2022-12-31T13:25:57.811Z,98029.14
2022-12-31T13:28:29.386Z,98017.45
2022-12-31T13:31:06.820Z,98010.02
2022-12-31T13:33:40.958Z,98010.21
2022-12-31T13:36:15.330Z,98014.06
2022-12-31T13:38:49.793Z,98006.25
2022-12-31T13:41:24.035Z,98010.05
2022-12-31T13:43:59.664Z,98006.70
2022-12-31T13:46:38.772Z,98000.77
2022-12-31T13:49:18.204Z,98011.27
2022-12-31T13:51:50.518Z,98004.85
2022-12-31T13:54:29.918Z,98001.55
2022-12-31T13:57:04.452Z,98000.83
2022-12-31T13:59:37.909Z,97998.52
2022-12-31T14:02:14.292Z,98015.33
2022-12-31T14:04:49.784Z,98012.89
2022-12-31T14:07:23.298Z,98018.89
2022-12-31T14:09:53.658Z,98025.89
2022-12-31T14:12:33.343Z,98030.63
2022-12-31T14:15:12.042Z,98031.05
2022-12-31T14:17:46.456Z,98033.08
2022-12-31T14:20:22.678Z,98027.66
2022-12-31T14:22:57.313Z,98030.85
2022-12-31T14:25:30.462Z,98039.41
2022-12-31T14:28:04.237Z,98038.91
2022-12-31T14:30:37.405Z,98034.02
2022-12-31T14:33:29.536Z,98036.16
2022-12-31T14:36:10.915Z,98038.27
2022-12-31T14:38:55.846Z,98036.10
2022-12-31T14:41:35.091Z,98038.90
2022-12-31T14:44:14.564Z,98046.62
2022-12-31T14:46:56.162Z,98048.48
2022-12-31T14:49:42.495Z,98048.26
2022-12-31T14:52:22.537Z,98047.20
2022-12-31T14:55:03.131Z,98046.45
2022-12-31T14:58:17.260Z,98047.09
2022-12-31T15:00:35.169Z,98052.59
2022-12-31T15:03:07.809Z,98056.39
2022-12-31T15:05:39.298Z,98057.63
2022-12-31T15:08:26.300Z,98058.80
2022-12-31T15:11:29.987Z,98059.49
2022-12-31T15:14:18.562Z,98060.36
2022-12-31T15:16:53.786Z,98062.19
2022-12-31T15:19:52.865Z,98064.27
2022-12-31T15:22:33.515Z,98064.85
2022-12-31T15:25:04.531Z,98070.23
2022-12-31T15:27:37.018Z,98076.38
2022-12-31T15:30:27.121Z,98073.69
2022-12-31T15:32:58.549Z,98073.11
2022-12-31T15:35:32.478Z,98077.37
2022-12-31T15:38:04.974Z,98081.20
2022-12-31T15:40:45.745Z,98084.48
2022-12-31T15:43:19.566Z,98077.02
2022-12-31T15:45:52.155Z,98076.80
2022-12-31T15:48:25.823Z,98079.35
2022-12-31T15:50:58.691Z,98080.96
2022-12-31T15:53:29.719Z,98084.41
2022-12-31T15:56:01.766Z,98073.15
2022-12-31T15:58:35.747Z,98082.42
2022-12-31T16:01:13.912Z,98081.76
2022-12-31T16:03:48.224Z,98087.48
2022-12-31T16:06:19.185Z,98085.76
2022-12-31T16:08:51.650Z,98077.92
2022-12-31T16:11:22.120Z,98080.81
2022-12-31T16:13:55.254Z,98081.78
2022-12-31T16:16:27.319Z,98086.64
2022-12-31T16:18:58.366Z,98087.38
2022-12-31T16:21:32.519Z,98087.63
2022-12-31T16:24:06.771Z,98086.46
2022-12-31T16:26:44.772Z,98080.84
2022-12-31T16:29:16.671Z,98073.64
2022-12-31T16:31:47.953Z,98078.71
2022-12-31T16:34:21.934Z,98081.69
2022-12-31T16:37:00.600Z,98079.12
2022-12-31T16:39:33.858Z,98087.13
2022-12-31T16:42:20.486Z,98089.35
2022-12-31T16:44:52.818Z,98089.25
2022-12-31T16:47:25.724Z,98088.80
2022-12-31T16:50:03.968Z,98087.75
2022-12-31T16:52:36.944Z,98091.62
2022-12-31T16:55:09.540Z,98096.13
2022-12-31T16:57:40.619Z,98089.27
2022-12-31T17:00:20.839Z,98090.63
2022-12-31T17:08:49.108Z,98085.09
2022-12-31T17:11:28.706Z,98083.91
2022-12-31T17:14:02.023Z,98082.64
2022-12-31T17:16:32.414Z,98081.30
2022-12-31T17:19:56.788Z,98089.90
2022-12-31T17:22:35.711Z,98088.88
2022-12-31T17:25:09.652Z,98092.80
2022-12-31T17:27:40.021Z,98087.67
2022-12-31T17:30:40.133Z,98089.95
2022-12-31T17:33:33.923Z,98088.95
2022-12-31T17:43:43.527Z,98092.08
2022-12-31T17:46:16.219Z,98092.41
2022-12-31T17:48:49.229Z,98094.62
2022-12-31T17:51:24.371Z,98097.23
2022-12-31T17:53:55.136Z,98094.38
2022-12-31T17:56:25.715Z,98093.89
2022-12-31T17:58:56.335Z,98095.08
2022-12-31T18:01:26.854Z,98096.38
2022-12-31T18:03:57.574Z,98096.77
2022-12-31T18:06:28.190Z,98100.46
2022-12-31T18:08:58.768Z,98101.89
2022-12-31T18:11:29.156Z,98104.23
2022-12-31T18:13:59.639Z,98102.35
2022-12-31T18:16:30.050Z,98098.02
2022-12-31T18:19:01.923Z,98104.53
2022-12-31T18:21:34.607Z,98100.02
2022-12-31T18:24:07.086Z,98102.39
2022-12-31T18:26:37.493Z,98102.33
2022-12-31T18:29:16.845Z,98096.39
2022-12-31T18:31:49.337Z,98104.21
2022-12-31T18:34:20.071Z,98103.44
2022-12-31T18:36:50.442Z,98104.38
2022-12-31T18:39:20.793Z,98104.73
2022-12-31T18:41:51.365Z,98106.53
2022-12-31T18:44:21.923Z,98101.31
2022-12-31T18:46:52.196Z,98105.56
2022-12-31T18:49:26.031Z,98103.30
2022-12-31T18:51:57.063Z,98107.23
2022-12-31T18:54:27.431Z,98111.11
2022-12-31T18:56:57.833Z,98120.30
2022-12-31T18:59:28.187Z,98123.10
2022-12-31T19:01:59.732Z,98134.79
2022-12-31T19:04:30.255Z,98128.77
2022-12-31T19:07:00.896Z,98132.48
2022-12-31T19:09:45.188Z,98132.65
2022-12-31T19:12:17.236Z,98139.27
2022-12-31T19:14:47.703Z,98140.43
2022-12-31T19:17:18.026Z,98139.52
2022-12-31T19:19:48.381Z,98136.73
2022-12-31T19:22:18.855Z,98135.84
2022-12-31T19:24:49.320Z,98142.61
2022-12-31T19:27:19.650Z,98149.42
2022-12-31T19:29:50.024Z,98151.25
2022-12-31T19:32:20.364Z,98153.93
2022-12-31T19:34:50.739Z,98153.36
2022-12-31T19:37:21.141Z,98150.94
2022-12-31T19:39:51.494Z,98156.54
2022-12-31T19:42:21.886Z,98160.89
2022-12-31T19:44:52.275Z,98158.85
2022-12-31T19:47:22.556Z,98163.42
2022-12-31T19:49:52.980Z,98163.93
2022-12-31T19:52:23.426Z,98160.65
2022-12-31T19:54:53.986Z,98164.39
2022-12-31T19:57:24.464Z,98165.06
2022-12-31T19:59:54.838Z,98169.27
2022-12-31T20:02:25.325Z,98172.19
2022-12-31T20:04:55.998Z,98169.19
2022-12-31T20:07:27.392Z,98168.33
2022-12-31T20:09:57.943Z,98177.05
2022-12-31T20:12:29.582Z,98178.95
2022-12-31T20:15:00.070Z,98177.23
2022-12-31T20:17:30.665Z,98180.16
2022-12-31T20:20:01.764Z,98180.17
2022-12-31T20:22:32.919Z,98179.58
2022-12-31T20:25:03.372Z,98172.85
2022-12-31T20:27:33.899Z,98173.90
2022-12-31T20:30:04.918Z,98170.55
2022-12-31T20:32:35.329Z,98173.09
2022-12-31T20:35:06.821Z,98177.68
2022-12-31T20:37:37.329Z,98180.77
2022-12-31T20:40:09.702Z,98181.48
2022-12-31T20:42:40.692Z,98177.73
2022-12-31T20:45:12.558Z,98175.65
2022-12-31T20:47:42.979Z,98173.80
2022-12-31T20:50:13.426Z,98173.86
2022-12-31T20:52:44.134Z,98168.59
2022-12-31T20:55:15.132Z,98167.30
2022-12-31T20:57:45.573Z,98165.29
2022-12-31T21:00:17.070Z,98163.56
2022-12-31T21:02:56.347Z,98167.19
2022-12-31T21:05:30.940Z,98179.06
2022-12-31T21:08:01.459Z,98179.70
2022-12-31T21:10:31.861Z,98176.30
2022-12-31T21:13:02.333Z,98186.52
2022-12-31T21:15:32.816Z,98188.98
2022-12-31T21:18:03.418Z,98189.90
2022-12-31T21:20:33.951Z,98188.13
2022-12-31T21:23:04.308Z,98194.13
2022-12-31T21:25:35.385Z,98187.79
2022-12-31T21:28:05.950Z,98191.08
2022-12-31T21:30:36.520Z,98190.54
2022-12-31T21:33:07.559Z,98201.45
2022-12-31T21:35:45.778Z,98200.48
2022-12-31T21:38:22.442Z,98200.23
2022-12-31T21:40:52.944Z,98192.37
2022-12-31T21:43:23.364Z,98198.54
2022-12-31T21:46:03.586Z,98207.98
2022-12-31T21:48:34.299Z,98207.14
2022-12-31T21:51:12.790Z,98205.19
2022-12-31T21:53:43.175Z,98211.17
2022-12-31T21:56:14.660Z,98212.67
2022-12-31T21:58:46.328Z,98223.04
2022-12-31T22:01:37.693Z,98221.02
2022-12-31T22:04:28.289Z,98228.80
2022-12-31T22:06:59.152Z,98231.37
2022-12-31T22:09:29.460Z,98235.43
2022-12-31T22:11:59.994Z,98231.01
2022-12-31T22:14:30.291Z,98234.83
2022-12-31T22:17:00.737Z,98235.46
2022-12-31T22:19:31.160Z,98240.45
2022-12-31T22:22:02.251Z,98244.44
2022-12-31T22:24:32.626Z,98237.83
2022-12-31T22:27:28.097Z,98244.05
2022-12-31T22:29:53.422Z,98245.73
2022-12-31T22:32:23.838Z,98252.72
2022-12-31T22:34:54.184Z,98255.90
2022-12-31T22:37:55.822Z,98255.48
2022-12-31T22:40:14.973Z,98254.50
2022-12-31T22:42:45.360Z,98258.56
2022-12-31T22:45:16.033Z,98257.90
2022-12-31T22:47:46.487Z,98253.06
2022-12-31T22:50:17.206Z,98259.69
2022-12-31T22:52:47.542Z,98264.61
2022-12-31T22:55:17.922Z,98266.52
2022-12-31T22:57:48.219Z,98265.28
2022-12-31T23:00:20.234Z,98261.84
2022-12-31T23:02:50.577Z,98263.52
2022-12-31T23:05:20.999Z,98265.42
2022-12-31T23:07:51.370Z,98274.02
2022-12-31T23:10:39.319Z,98276.08
2022-12-31T23:13:27.316Z,98279.38
2022-12-31T23:16:15.331Z,98283.30
2022-12-31T23:19:05.540Z,98286.63
2022-12-31T23:21:53.717Z,98289.65
2022-12-31T23:24:26.647Z,98292.72
2022-12-31T23:26:57.819Z,98293.34
2022-12-31T23:29:28.675Z,98295.41
2022-12-31T23:31:59.208Z,98297.01
2022-12-31T23:34:29.631Z,98297.60
2022-12-31T23:36:59.920Z,98300.48
2022-12-31T23:39:30.426Z,98302.11
2022-12-31T23:42:01.998Z,98307.33
2022-12-31T23:44:32.358Z,98309.89
2022-12-31T23:47:02.836Z,98306.21
2022-12-31T23:49:33.199Z,98302.76
2022-12-31T23:52:03.422Z,98305.04
2022-12-31T23:54:34.980Z,98306.96
2022-12-31T23:57:05.456Z,98308.07
2022-12-31T23:59:35.705Z,98310.86
